sensor_id;sensor_type;location;lat;lon;timestamp;P1;durP1;ratioP1;P2;durP2;ratioP2
19907;SDS011;10116;53.112;7.356;2023-04-25T00:01:16;2.83;;;2.00;;
19907;SDS011;10116;53.112;7.356;2023-04-25T00:03:42;2.60;;;2.03;;
19907;SDS011;10116;53.112;7.356;2023-04-25T00:06:08;2.47;;;2.27;;
19907;SDS011;10116;53.112;7.356;2023-04-25T00:08:33;2.10;;;1.90;;
19907;SDS011;10116;53.112;7.356;2023-04-25T00:11:00;1.87;;;1.73;;
19907;SDS011;10116;53.112;7.356;2023-04-25T00:13:26;2.87;;;1.97;;
19907;SDS011;10116;53.112;7.356;2023-04-25T00:15:51;2.40;;;2.10;;
19907;SDS011;10116;53.112;7.356;2023-04-25T00:18:25;2.83;;;2.13;;
19907;SDS011;10116;53.112;7.356;2023-04-25T00:20:53;2.73;;;2.03;;
19907;SDS011;10116;53.112;7.356;2023-04-25T00:23:19;2.40;;;2.13;;
19907;SDS011;10116;53.112;7.356;2023-04-25T00:25:45;2.53;;;2.10;;
19907;SDS011;10116;53.112;7.356;2023-04-25T00:28:11;2.17;;;1.97;;
19907;SDS011;10116;53.112;7.356;2023-04-25T00:30:38;2.33;;;1.77;;
19907;SDS011;10116;53.112;7.356;2023-04-25T00:33:04;2.30;;;2.13;;
19907;SDS011;10116;53.112;7.356;2023-04-25T00:35:29;2.20;;;1.80;;
19907;SDS011;10116;53.112;7.356;2023-04-25T00:37:55;1.90;;;1.70;;
19907;SDS011;10116;53.112;7.356;2023-04-25T00:40:21;2.47;;;2.23;;
19907;SDS011;10116;53.112;7.356;2023-04-25T00:42:47;2.53;;;2.00;;
19907;SDS011;10116;53.112;7.356;2023-04-25T00:45:13;3.90;;;2.00;;
19907;SDS011;10116;53.112;7.356;2023-04-25T00:47:42;2.10;;;1.90;;
19907;SDS011;10116;53.112;7.356;2023-04-25T00:50:08;2.57;;;2.27;;
19907;SDS011;10116;53.112;7.356;2023-04-25T00:52:34;2.47;;;1.80;;
19907;SDS011;10116;53.112;7.356;2023-04-25T00:55:01;1.90;;;1.73;;
19907;SDS011;10116;53.112;7.356;2023-04-25T00:57:26;2.13;;;1.90;;
19907;SDS011;10116;53.112;7.356;2023-04-25T00:59:53;1.73;;;1.63;;
19907;SDS011;10116;53.112;7.356;2023-04-25T01:02:19;3.97;;;2.00;;
19907;SDS011;10116;53.112;7.356;2023-04-25T01:04:45;2.97;;;2.00;;
19907;SDS011;10116;53.112;7.356;2023-04-25T01:07:12;2.13;;;1.93;;
19907;SDS011;10116;53.112;7.356;2023-04-25T01:09:38;2.20;;;1.83;;
19907;SDS011;10116;53.112;7.356;2023-04-25T01:12:03;1.57;;;1.47;;
19907;SDS011;10116;53.112;7.356;2023-04-25T01:14:29;1.80;;;1.70;;
19907;SDS011;10116;53.112;7.356;2023-04-25T01:16:56;2.30;;;1.90;;
19907;SDS011;10116;53.112;7.356;2023-04-25T01:19:22;3.17;;;1.90;;
19907;SDS011;10116;53.112;7.356;2023-04-25T01:21:48;2.47;;;1.83;;
19907;SDS011;10116;53.112;7.356;2023-04-25T01:24:14;4.47;;;2.13;;
19907;SDS011;10116;53.112;7.356;2023-04-25T01:26:40;3.07;;;1.93;;
19907;SDS011;10116;53.112;7.356;2023-04-25T01:29:09;3.40;;;1.90;;
19907;SDS011;10116;53.112;7.356;2023-04-25T01:31:35;2.50;;;2.10;;
19907;SDS011;10116;53.112;7.356;2023-04-25T01:34:02;1.37;;;1.27;;
19907;SDS011;10116;53.112;7.356;2023-04-25T01:36:27;2.93;;;2.17;;
19907;SDS011;10116;53.112;7.356;2023-04-25T01:38:53;2.00;;;1.73;;
19907;SDS011;10116;53.112;7.356;2023-04-25T01:41:20;2.40;;;1.67;;
19907;SDS011;10116;53.112;7.356;2023-04-25T01:43:48;3.10;;;2.20;;
19907;SDS011;10116;53.112;7.356;2023-04-25T01:46:13;2.60;;;1.60;;
19907;SDS011;10116;53.112;7.356;2023-04-25T01:48:39;2.17;;;1.90;;
19907;SDS011;10116;53.112;7.356;2023-04-25T01:51:05;4.07;;;1.80;;
19907;SDS011;10116;53.112;7.356;2023-04-25T01:53:31;2.10;;;1.50;;
19907;SDS011;10116;53.112;7.356;2023-04-25T01:55:56;1.60;;;1.50;;
19907;SDS011;10116;53.112;7.356;2023-04-25T01:58:22;3.10;;;2.13;;
19907;SDS011;10116;53.112;7.356;2023-04-25T02:00:47;3.20;;;2.10;;
19907;SDS011;10116;53.112;7.356;2023-04-25T02:03:13;2.27;;;1.90;;
19907;SDS011;10116;53.112;7.356;2023-04-25T02:05:39;2.70;;;1.70;;
19907;SDS011;10116;53.112;7.356;2023-04-25T02:08:06;3.53;;;1.90;;
19907;SDS011;10116;53.112;7.356;2023-04-25T02:10:34;2.10;;;2.00;;
19907;SDS011;10116;53.112;7.356;2023-04-25T02:13:01;2.00;;;1.87;;
19907;SDS011;10116;53.112;7.356;2023-04-25T02:15:27;1.83;;;1.60;;
19907;SDS011;10116;53.112;7.356;2023-04-25T02:17:52;1.53;;;1.43;;
19907;SDS011;10116;53.112;7.356;2023-04-25T02:20:20;1.90;;;1.60;;
19907;SDS011;10116;53.112;7.356;2023-04-25T02:22:46;2.50;;;1.63;;
19907;SDS011;10116;53.112;7.356;2023-04-25T02:25:12;1.57;;;1.40;;
19907;SDS011;10116;53.112;7.356;2023-04-25T02:27:38;1.77;;;1.50;;
19907;SDS011;10116;53.112;7.356;2023-04-25T02:30:04;2.10;;;1.63;;
19907;SDS011;10116;53.112;7.356;2023-04-25T02:32:31;1.73;;;1.63;;
19907;SDS011;10116;53.112;7.356;2023-04-25T02:34:57;2.80;;;1.60;;
19907;SDS011;10116;53.112;7.356;2023-04-25T02:37:28;1.90;;;1.40;;
19907;SDS011;10116;53.112;7.356;2023-04-25T02:39:54;3.23;;;1.33;;
19907;SDS011;10116;53.112;7.356;2023-04-25T02:42:20;2.57;;;1.80;;
19907;SDS011;10116;53.112;7.356;2023-04-25T02:44:45;2.10;;;1.70;;
19907;SDS011;10116;53.112;7.356;2023-04-25T02:47:11;3.83;;;1.50;;
19907;SDS011;10116;53.112;7.356;2023-04-25T02:49:37;2.70;;;1.53;;
19907;SDS011;10116;53.112;7.356;2023-04-25T02:52:02;1.67;;;1.43;;
19907;SDS011;10116;53.112;7.356;2023-04-25T02:54:28;2.07;;;1.60;;
19907;SDS011;10116;53.112;7.356;2023-04-25T02:56:53;2.73;;;1.63;;
19907;SDS011;10116;53.112;7.356;2023-04-25T02:59:19;2.20;;;1.60;;
19907;SDS011;10116;53.112;7.356;2023-04-25T03:01:45;1.10;;;1.10;;
19907;SDS011;10116;53.112;7.356;2023-04-25T03:04:10;4.47;;;1.50;;
19907;SDS011;10116;53.112;7.356;2023-04-25T03:06:36;1.63;;;1.50;;
19907;SDS011;10116;53.112;7.356;2023-04-25T03:09:01;1.80;;;1.33;;
19907;SDS011;10116;53.112;7.356;2023-04-25T03:11:27;1.50;;;1.40;;
19907;SDS011;10116;53.112;7.356;2023-04-25T03:13:53;4.07;;;2.00;;
19907;SDS011;10116;53.112;7.356;2023-04-25T03:16:18;1.90;;;1.50;;
19907;SDS011;10116;53.112;7.356;2023-04-25T03:18:44;2.13;;;1.27;;
19907;SDS011;10116;53.112;7.356;2023-04-25T03:21:10;2.07;;;1.27;;
19907;SDS011;10116;53.112;7.356;2023-04-25T03:23:35;1.13;;;1.10;;
19907;SDS011;10116;53.112;7.356;2023-04-25T03:26:01;1.40;;;1.30;;
19907;SDS011;10116;53.112;7.356;2023-04-25T03:28:27;2.17;;;1.50;;
19907;SDS011;10116;53.112;7.356;2023-04-25T03:30:53;3.60;;;1.50;;
19907;SDS011;10116;53.112;7.356;2023-04-25T03:33:19;1.53;;;1.27;;
19907;SDS011;10116;53.112;7.356;2023-04-25T03:35:44;2.20;;;1.37;;
19907;SDS011;10116;53.112;7.356;2023-04-25T03:38:10;3.93;;;1.80;;
19907;SDS011;10116;53.112;7.356;2023-04-25T03:40:36;1.77;;;1.17;;
19907;SDS011;10116;53.112;7.356;2023-04-25T03:43:01;1.40;;;1.30;;
19907;SDS011;10116;53.112;7.356;2023-04-25T03:45:27;1.50;;;1.40;;
19907;SDS011;10116;53.112;7.356;2023-04-25T03:47:52;1.50;;;1.40;;
19907;SDS011;10116;53.112;7.356;2023-04-25T03:50:18;1.80;;;1.70;;
19907;SDS011;10116;53.112;7.356;2023-04-25T03:52:44;1.40;;;1.17;;
19907;SDS011;10116;53.112;7.356;2023-04-25T03:55:09;1.40;;;1.30;;
19907;SDS011;10116;53.112;7.356;2023-04-25T03:57:35;1.97;;;1.73;;
19907;SDS011;10116;53.112;7.356;2023-04-25T04:00:01;3.27;;;1.23;;
19907;SDS011;10116;53.112;7.356;2023-04-25T04:02:28;2.30;;;1.30;;
19907;SDS011;10116;53.112;7.356;2023-04-25T04:04:54;1.30;;;1.20;;
19907;SDS011;10116;53.112;7.356;2023-04-25T04:07:20;1.60;;;1.50;;
19907;SDS011;10116;53.112;7.356;2023-04-25T04:09:46;2.17;;;1.50;;
19907;SDS011;10116;53.112;7.356;2023-04-25T04:12:12;2.90;;;1.50;;
19907;SDS011;10116;53.112;7.356;2023-04-25T04:14:37;2.13;;;1.50;;
19907;SDS011;10116;53.112;7.356;2023-04-25T04:17:03;1.57;;;1.17;;
19907;SDS011;10116;53.112;7.356;2023-04-25T04:19:28;2.00;;;1.40;;
19907;SDS011;10116;53.112;7.356;2023-04-25T04:21:54;2.03;;;1.53;;
19907;SDS011;10116;53.112;7.356;2023-04-25T04:24:20;3.83;;;1.70;;
19907;SDS011;10116;53.112;7.356;2023-04-25T04:26:45;1.27;;;1.17;;
19907;SDS011;10116;53.112;7.356;2023-04-25T04:29:11;2.30;;;1.53;;
19907;SDS011;10116;53.112;7.356;2023-04-25T04:31:45;1.07;;;1.07;;
19907;SDS011;10116;53.112;7.356;2023-04-25T04:34:14;1.20;;;1.10;;
19907;SDS011;10116;53.112;7.356;2023-04-25T04:36:41;2.30;;;1.10;;
19907;SDS011;10116;53.112;7.356;2023-04-25T04:39:07;1.47;;;1.37;;
19907;SDS011;10116;53.112;7.356;2023-04-25T04:41:34;2.43;;;1.30;;
19907;SDS011;10116;53.112;7.356;2023-04-25T04:43:59;2.10;;;1.20;;
19907;SDS011;10116;53.112;7.356;2023-04-25T04:46:26;1.90;;;1.40;;
19907;SDS011;10116;53.112;7.356;2023-04-25T04:48:53;4.90;;;1.57;;
19907;SDS011;10116;53.112;7.356;2023-04-25T04:51:18;2.57;;;1.10;;
19907;SDS011;10116;53.112;7.356;2023-04-25T04:53:45;2.20;;;1.53;;
19907;SDS011;10116;53.112;7.356;2023-04-25T04:56:11;3.70;;;1.63;;
19907;SDS011;10116;53.112;7.356;2023-04-25T04:58:36;5.10;;;1.73;;
19907;SDS011;10116;53.112;7.356;2023-04-25T05:01:02;4.60;;;2.37;;
19907;SDS011;10116;53.112;7.356;2023-04-25T05:03:28;3.77;;;1.87;;
19907;SDS011;10116;53.112;7.356;2023-04-25T05:05:53;3.07;;;1.90;;
19907;SDS011;10116;53.112;7.356;2023-04-25T05:08:19;3.33;;;1.30;;
19907;SDS011;10116;53.112;7.356;2023-04-25T05:10:45;2.40;;;1.50;;
19907;SDS011;10116;53.112;7.356;2023-04-25T05:13:11;3.17;;;1.57;;
19907;SDS011;10116;53.112;7.356;2023-04-25T05:15:36;3.80;;;1.97;;
19907;SDS011;10116;53.112;7.356;2023-04-25T05:18:02;5.83;;;1.97;;
19907;SDS011;10116;53.112;7.356;2023-04-25T05:20:28;6.03;;;1.77;;
19907;SDS011;10116;53.112;7.356;2023-04-25T05:22:54;2.23;;;1.57;;
19907;SDS011;10116;53.112;7.356;2023-04-25T05:25:19;3.40;;;1.90;;
19907;SDS011;10116;53.112;7.356;2023-04-25T05:27:45;3.70;;;1.50;;
19907;SDS011;10116;53.112;7.356;2023-04-25T05:30:10;5.10;;;2.53;;
19907;SDS011;10116;53.112;7.356;2023-04-25T05:32:36;4.43;;;1.80;;
19907;SDS011;10116;53.112;7.356;2023-04-25T05:35:02;2.70;;;1.80;;
19907;SDS011;10116;53.112;7.356;2023-04-25T05:37:28;4.70;;;2.20;;
19907;SDS011;10116;53.112;7.356;2023-04-25T05:39:55;3.50;;;1.67;;
19907;SDS011;10116;53.112;7.356;2023-04-25T05:42:21;4.63;;;1.90;;
19907;SDS011;10116;53.112;7.356;2023-04-25T05:44:46;6.30;;;2.20;;
19907;SDS011;10116;53.112;7.356;2023-04-25T05:47:12;2.73;;;1.80;;
19907;SDS011;10116;53.112;7.356;2023-04-25T05:49:37;6.27;;;1.97;;
19907;SDS011;10116;53.112;7.356;2023-04-25T05:52:03;4.40;;;1.80;;
19907;SDS011;10116;53.112;7.356;2023-04-25T05:54:29;4.63;;;2.30;;
19907;SDS011;10116;53.112;7.356;2023-04-25T05:56:56;2.80;;;1.90;;
19907;SDS011;10116;53.112;7.356;2023-04-25T05:59:22;5.17;;;1.60;;
19907;SDS011;10116;53.112;7.356;2023-04-25T06:01:47;7.03;;;2.10;;
19907;SDS011;10116;53.112;7.356;2023-04-25T06:04:13;4.40;;;1.83;;
19907;SDS011;10116;53.112;7.356;2023-04-25T06:06:39;3.70;;;1.80;;
19907;SDS011;10116;53.112;7.356;2023-04-25T06:09:04;5.60;;;2.07;;
19907;SDS011;10116;53.112;7.356;2023-04-25T06:11:30;4.50;;;1.53;;
19907;SDS011;10116;53.112;7.356;2023-04-25T06:13:55;6.50;;;2.13;;
19907;SDS011;10116;53.112;7.356;2023-04-25T06:16:21;3.40;;;1.90;;
19907;SDS011;10116;53.112;7.356;2023-04-25T06:18:47;9.87;;;2.00;;
19907;SDS011;10116;53.112;7.356;2023-04-25T06:21:12;4.23;;;1.80;;
19907;SDS011;10116;53.112;7.356;2023-04-25T06:23:38;5.10;;;1.50;;
19907;SDS011;10116;53.112;7.356;2023-04-25T06:26:03;4.90;;;1.80;;
19907;SDS011;10116;53.112;7.356;2023-04-25T06:28:29;5.70;;;1.80;;
19907;SDS011;10116;53.112;7.356;2023-04-25T06:30:55;3.60;;;1.40;;
19907;SDS011;10116;53.112;7.356;2023-04-25T06:33:20;3.07;;;1.80;;
19907;SDS011;10116;53.112;7.356;2023-04-25T06:35:47;3.40;;;1.67;;
19907;SDS011;10116;53.112;7.356;2023-04-25T06:38:12;5.60;;;1.77;;
19907;SDS011;10116;53.112;7.356;2023-04-25T06:40:38;3.80;;;1.73;;
19907;SDS011;10116;53.112;7.356;2023-04-25T06:43:04;4.20;;;1.67;;
19907;SDS011;10116;53.112;7.356;2023-04-25T06:45:29;4.10;;;2.00;;
19907;SDS011;10116;53.112;7.356;2023-04-25T06:47:55;2.87;;;1.63;;
19907;SDS011;10116;53.112;7.356;2023-04-25T06:50:21;3.13;;;1.60;;
19907;SDS011;10116;53.112;7.356;2023-04-25T06:52:46;4.43;;;1.60;;
19907;SDS011;10116;53.112;7.356;2023-04-25T06:55:12;3.03;;;1.57;;
19907;SDS011;10116;53.112;7.356;2023-04-25T06:57:37;3.57;;;1.87;;
19907;SDS011;10116;53.112;7.356;2023-04-25T07:00:03;4.73;;;1.73;;
19907;SDS011;10116;53.112;7.356;2023-04-25T07:02:35;2.40;;;1.73;;
19907;SDS011;10116;53.112;7.356;2023-04-25T07:05:02;2.33;;;1.80;;
19907;SDS011;10116;53.112;7.356;2023-04-25T07:07:29;7.30;;;1.47;;
19907;SDS011;10116;53.112;7.356;2023-04-25T07:09:55;3.03;;;1.40;;
19907;SDS011;10116;53.112;7.356;2023-04-25T07:12:21;2.10;;;1.43;;
19907;SDS011;10116;53.112;7.356;2023-04-25T07:14:47;3.53;;;1.30;;
19907;SDS011;10116;53.112;7.356;2023-04-25T07:17:12;7.67;;;2.33;;
19907;SDS011;10116;53.112;7.356;2023-04-25T07:19:38;3.73;;;1.40;;
19907;SDS011;10116;53.112;7.356;2023-04-25T07:22:05;1.40;;;1.13;;
19907;SDS011;10116;53.112;7.356;2023-04-25T07:24:31;2.73;;;1.57;;
19907;SDS011;10116;53.112;7.356;2023-04-25T07:26:57;2.37;;;1.60;;
19907;SDS011;10116;53.112;7.356;2023-04-25T07:29:22;9.80;;;1.80;;
19907;SDS011;10116;53.112;7.356;2023-04-25T07:31:48;3.60;;;1.57;;
19907;SDS011;10116;53.112;7.356;2023-04-25T07:34:14;3.60;;;1.53;;
19907;SDS011;10116;53.112;7.356;2023-04-25T07:36:40;2.63;;;1.30;;
19907;SDS011;10116;53.112;7.356;2023-04-25T07:39:06;5.43;;;1.77;;
19907;SDS011;10116;53.112;7.356;2023-04-25T07:41:33;2.03;;;1.00;;
19907;SDS011;10116;53.112;7.356;2023-04-25T07:43:59;2.63;;;1.43;;
19907;SDS011;10116;53.112;7.356;2023-04-25T07:46:25;2.40;;;1.50;;
19907;SDS011;10116;53.112;7.356;2023-04-25T07:48:51;2.70;;;1.40;;
19907;SDS011;10116;53.112;7.356;2023-04-25T07:51:16;3.23;;;1.80;;
19907;SDS011;10116;53.112;7.356;2023-04-25T07:53:44;4.60;;;1.93;;
19907;SDS011;10116;53.112;7.356;2023-04-25T07:56:10;3.10;;;1.57;;
19907;SDS011;10116;53.112;7.356;2023-04-25T07:58:36;5.13;;;1.77;;
19907;SDS011;10116;53.112;7.356;2023-04-25T08:01:02;9.93;;;1.40;;
19907;SDS011;10116;53.112;7.356;2023-04-25T08:03:27;3.43;;;1.77;;
19907;SDS011;10116;53.112;7.356;2023-04-25T08:05:53;3.90;;;1.80;;
19907;SDS011;10116;53.112;7.356;2023-04-25T08:08:19;2.43;;;1.37;;
19907;SDS011;10116;53.112;7.356;2023-04-25T08:10:44;2.20;;;1.33;;
19907;SDS011;10116;53.112;7.356;2023-04-25T08:13:10;4.10;;;1.67;;
19907;SDS011;10116;53.112;7.356;2023-04-25T08:15:35;6.57;;;2.13;;
19907;SDS011;10116;53.112;7.356;2023-04-25T08:18:01;4.20;;;1.60;;
19907;SDS011;10116;53.112;7.356;2023-04-25T08:20:27;2.80;;;1.20;;
19907;SDS011;10116;53.112;7.356;2023-04-25T08:22:53;6.17;;;1.83;;
19907;SDS011;10116;53.112;7.356;2023-04-25T08:25:19;3.73;;;1.30;;
19907;SDS011;10116;53.112;7.356;2023-04-25T08:27:44;3.07;;;1.50;;
19907;SDS011;10116;53.112;7.356;2023-04-25T08:30:11;3.40;;;2.00;;
19907;SDS011;10116;53.112;7.356;2023-04-25T08:32:37;8.03;;;1.93;;
19907;SDS011;10116;53.112;7.356;2023-04-25T08:35:05;4.70;;;1.53;;
19907;SDS011;10116;53.112;7.356;2023-04-25T08:37:31;3.70;;;1.50;;
19907;SDS011;10116;53.112;7.356;2023-04-25T08:39:57;3.93;;;1.83;;
19907;SDS011;10116;53.112;7.356;2023-04-25T08:42:24;5.90;;;1.83;;
19907;SDS011;10116;53.112;7.356;2023-04-25T08:44:52;3.27;;;1.27;;
19907;SDS011;10116;53.112;7.356;2023-04-25T08:47:20;5.80;;;1.87;;
19907;SDS011;10116;53.112;7.356;2023-04-25T08:49:47;4.20;;;1.50;;
19907;SDS011;10116;53.112;7.356;2023-04-25T08:52:14;7.33;;;1.80;;
19907;SDS011;10116;53.112;7.356;2023-04-25T08:54:46;10.83;;;1.83;;
19907;SDS011;10116;53.112;7.356;2023-04-25T08:57:13;7.03;;;1.37;;
19907;SDS011;10116;53.112;7.356;2023-04-25T08:59:40;4.77;;;1.17;;
19907;SDS011;10116;53.112;7.356;2023-04-25T09:02:10;5.33;;;1.47;;
19907;SDS011;10116;53.112;7.356;2023-04-25T09:04:39;6.80;;;1.83;;
19907;SDS011;10116;53.112;7.356;2023-04-25T09:07:05;5.20;;;1.27;;
19907;SDS011;10116;53.112;7.356;2023-04-25T09:09:31;7.13;;;1.60;;
19907;SDS011;10116;53.112;7.356;2023-04-25T09:11:56;2.63;;;1.37;;
19907;SDS011;10116;53.112;7.356;2023-04-25T09:14:23;3.43;;;1.50;;
19907;SDS011;10116;53.112;7.356;2023-04-25T09:21:49;2.83;;;1.30;;
19907;SDS011;10116;53.112;7.356;2023-04-25T09:24:16;4.10;;;1.23;;
19907;SDS011;10116;53.112;7.356;2023-04-25T09:26:44;2.13;;;1.10;;
19907;SDS011;10116;53.112;7.356;2023-04-25T09:29:10;5.23;;;1.60;;
19907;SDS011;10116;53.112;7.356;2023-04-25T09:31:35;2.17;;;1.33;;
19907;SDS011;10116;53.112;7.356;2023-04-25T09:34:01;4.50;;;1.80;;
19907;SDS011;10116;53.112;7.356;2023-04-25T09:36:27;2.33;;;1.17;;
19907;SDS011;10116;53.112;7.356;2023-04-25T09:38:54;4.93;;;1.60;;
19907;SDS011;10116;53.112;7.356;2023-04-25T09:41:23;3.33;;;1.40;;
19907;SDS011;10116;53.112;7.356;2023-04-25T09:43:50;1.57;;;1.20;;
19907;SDS011;10116;53.112;7.356;2023-04-25T09:46:16;1.87;;;1.10;;
19907;SDS011;10116;53.112;7.356;2023-04-25T09:48:49;2.77;;;1.40;;
19907;SDS011;10116;53.112;7.356;2023-04-25T09:51:16;2.57;;;1.20;;
19907;SDS011;10116;53.112;7.356;2023-04-25T09:53:45;2.30;;;1.10;;
19907;SDS011;10116;53.112;7.356;2023-04-25T09:56:14;2.10;;;1.67;;
19907;SDS011;10116;53.112;7.356;2023-04-25T09:58:41;1.30;;;1.10;;
19907;SDS011;10116;53.112;7.356;2023-04-25T10:01:07;3.53;;;1.33;;
19907;SDS011;10116;53.112;7.356;2023-04-25T10:03:35;6.70;;;1.73;;
19907;SDS011;10116;53.112;7.356;2023-04-25T10:06:07;2.13;;;1.10;;
19907;SDS011;10116;53.112;7.356;2023-04-25T10:08:36;1.83;;;1.37;;
19907;SDS011;10116;53.112;7.356;2023-04-25T10:11:06;1.77;;;1.20;;
19907;SDS011;10116;53.112;7.356;2023-04-25T10:13:33;2.70;;;1.20;;
19907;SDS011;10116;53.112;7.356;2023-04-25T10:16:01;3.40;;;1.00;;
19907;SDS011;10116;53.112;7.356;2023-04-25T10:18:28;2.23;;;1.20;;
19907;SDS011;10116;53.112;7.356;2023-04-25T10:20:59;1.93;;;0.80;;
19907;SDS011;10116;53.112;7.356;2023-04-25T10:23:26;0.93;;;0.83;;
19907;SDS011;10116;53.112;7.356;2023-04-25T10:25:54;1.73;;;1.10;;
19907;SDS011;10116;53.112;7.356;2023-04-25T10:28:23;1.33;;;0.93;;
19907;SDS011;10116;53.112;7.356;2023-04-25T10:31:00;3.47;;;1.50;;
19907;SDS011;10116;53.112;7.356;2023-04-25T10:33:37;2.60;;;1.13;;
19907;SDS011;10116;53.112;7.356;2023-04-25T10:36:11;2.57;;;1.20;;
19907;SDS011;10116;53.112;7.356;2023-04-25T10:38:42;6.50;;;1.43;;
19907;SDS011;10116;53.112;7.356;2023-04-25T10:41:09;1.90;;;1.10;;
19907;SDS011;10116;53.112;7.356;2023-04-25T10:43:37;3.00;;;1.20;;
19907;SDS011;10116;53.112;7.356;2023-04-25T10:48:56;1.53;;;1.03;;
19907;SDS011;10116;53.112;7.356;2023-04-25T10:51:27;2.00;;;1.17;;
19907;SDS011;10116;53.112;7.356;2023-04-25T10:56:31;2.17;;;1.33;;
19907;SDS011;10116;53.112;7.356;2023-04-25T11:01:41;2.50;;;1.30;;
19907;SDS011;10116;53.112;7.356;2023-04-25T11:04:25;3.07;;;1.70;;
19907;SDS011;10116;53.112;7.356;2023-04-25T11:09:24;2.20;;;1.10;;
19907;SDS011;10116;53.112;7.356;2023-04-25T11:11:54;2.83;;;0.90;;
19907;SDS011;10116;53.112;7.356;2023-04-25T11:14:20;2.37;;;1.17;;
19907;SDS011;10116;53.112;7.356;2023-04-25T11:16:46;1.50;;;1.00;;
19907;SDS011;10116;53.112;7.356;2023-04-25T11:19:12;6.20;;;1.47;;
19907;SDS011;10116;53.112;7.356;2023-04-25T11:21:38;3.90;;;1.20;;
19907;SDS011;10116;53.112;7.356;2023-04-25T11:24:03;3.57;;;0.90;;
19907;SDS011;10116;53.112;7.356;2023-04-25T11:26:29;1.97;;;1.23;;
19907;SDS011;10116;53.112;7.356;2023-04-25T11:28:58;7.83;;;1.40;;
19907;SDS011;10116;53.112;7.356;2023-04-25T11:31:28;3.90;;;1.50;;
19907;SDS011;10116;53.112;7.356;2023-04-25T11:33:57;1.63;;;1.10;;
19907;SDS011;10116;53.112;7.356;2023-04-25T11:36:23;4.17;;;1.30;;
19907;SDS011;10116;53.112;7.356;2023-04-25T11:38:51;3.97;;;1.70;;
19907;SDS011;10116;53.112;7.356;2023-04-25T11:41:18;14.73;;;1.80;;
19907;SDS011;10116;53.112;7.356;2023-04-25T11:43:47;1.20;;;1.10;;
19907;SDS011;10116;53.112;7.356;2023-04-25T11:46:13;2.57;;;1.30;;
19907;SDS011;10116;53.112;7.356;2023-04-25T11:48:42;4.37;;;1.33;;
19907;SDS011;10116;53.112;7.356;2023-04-25T11:51:08;1.40;;;0.83;;
19907;SDS011;10116;53.112;7.356;2023-04-25T11:53:34;2.53;;;1.50;;
19907;SDS011;10116;53.112;7.356;2023-04-25T11:56:00;3.17;;;0.93;;
19907;SDS011;10116;53.112;7.356;2023-04-25T11:58:26;5.47;;;1.10;;
19907;SDS011;10116;53.112;7.356;2023-04-25T12:00:52;4.73;;;1.60;;
19907;SDS011;10116;53.112;7.356;2023-04-25T12:03:18;2.40;;;1.20;;
19907;SDS011;10116;53.112;7.356;2023-04-25T12:05:44;3.57;;;1.23;;
19907;SDS011;10116;53.112;7.356;2023-04-25T12:08:14;3.00;;;1.43;;
19907;SDS011;10116;53.112;7.356;2023-04-25T12:10:43;2.60;;;1.37;;
19907;SDS011;10116;53.112;7.356;2023-04-25T12:15:44;2.77;;;1.00;;
19907;SDS011;10116;53.112;7.356;2023-04-25T12:18:10;2.80;;;0.93;;
19907;SDS011;10116;53.112;7.356;2023-04-25T12:20:36;4.30;;;1.37;;
19907;SDS011;10116;53.112;7.356;2023-04-25T12:23:02;1.47;;;1.20;;
19907;SDS011;10116;53.112;7.356;2023-04-25T12:25:39;1.97;;;1.20;;
19907;SDS011;10116;53.112;7.356;2023-04-25T12:28:16;3.43;;;1.40;;
19907;SDS011;10116;53.112;7.356;2023-04-25T12:30:57;2.27;;;0.80;;
19907;SDS011;10116;53.112;7.356;2023-04-25T12:33:30;2.47;;;1.00;;
19907;SDS011;10116;53.112;7.356;2023-04-25T12:35:57;2.93;;;1.30;;
19907;SDS011;10116;53.112;7.356;2023-04-25T12:38:24;1.40;;;0.90;;
19907;SDS011;10116;53.112;7.356;2023-04-25T12:40:55;4.90;;;1.03;;
19907;SDS011;10116;53.112;7.356;2023-04-25T12:43:21;4.00;;;1.00;;
19907;SDS011;10116;53.112;7.356;2023-04-25T12:45:53;0.90;;;0.90;;
19907;SDS011;10116;53.112;7.356;2023-04-25T12:48:20;2.30;;;1.10;;
19907;SDS011;10116;53.112;7.356;2023-04-25T12:50:46;1.90;;;1.00;;
19907;SDS011;10116;53.112;7.356;2023-04-25T12:53:19;2.17;;;1.27;;
19907;SDS011;10116;53.112;7.356;2023-04-25T12:55:46;1.00;;;1.00;;
19907;SDS011;10116;53.112;7.356;2023-04-25T12:58:12;3.00;;;1.20;;
19907;SDS011;10116;53.112;7.356;2023-04-25T13:00:38;1.50;;;1.07;;
19907;SDS011;10116;53.112;7.356;2023-04-25T13:03:04;1.13;;;1.03;;
19907;SDS011;10116;53.112;7.356;2023-04-25T13:05:30;3.50;;;1.30;;
19907;SDS011;10116;53.112;7.356;2023-04-25T13:07:56;1.00;;;0.90;;
19907;SDS011;10116;53.112;7.356;2023-04-25T13:10:22;3.03;;;1.07;;
19907;SDS011;10116;53.112;7.356;2023-04-25T13:12:47;2.30;;;0.87;;
19907;SDS011;10116;53.112;7.356;2023-04-25T13:15:13;1.73;;;1.00;;
19907;SDS011;10116;53.112;7.356;2023-04-25T13:17:40;2.57;;;1.30;;
19907;SDS011;10116;53.112;7.356;2023-04-25T13:20:06;1.13;;;1.03;;
19907;SDS011;10116;53.112;7.356;2023-04-25T13:22:36;5.37;;;1.40;;
19907;SDS011;10116;53.112;7.356;2023-04-25T13:25:03;1.30;;;1.00;;
19907;SDS011;10116;53.112;7.356;2023-04-25T13:27:30;5.37;;;1.47;;
19907;SDS011;10116;53.112;7.356;2023-04-25T13:29:57;9.30;;;0.93;;
19907;SDS011;10116;53.112;7.356;2023-04-25T13:32:23;1.63;;;0.90;;
19907;SDS011;10116;53.112;7.356;2023-04-25T13:34:50;4.17;;;1.17;;
19907;SDS011;10116;53.112;7.356;2023-04-25T13:37:16;14.63;;;2.23;;
19907;SDS011;10116;53.112;7.356;2023-04-25T13:39:42;9.63;;;1.30;;
19907;SDS011;10116;53.112;7.356;2023-04-25T13:42:07;3.70;;;1.20;;
19907;SDS011;10116;53.112;7.356;2023-04-25T13:44:33;9.20;;;1.40;;
19907;SDS011;10116;53.112;7.356;2023-04-25T13:46:58;7.00;;;0.90;;
19907;SDS011;10116;53.112;7.356;2023-04-25T13:49:25;4.00;;;0.90;;
19907;SDS011;10116;53.112;7.356;2023-04-25T13:51:51;4.70;;;1.47;;
19907;SDS011;10116;53.112;7.356;2023-04-25T13:54:17;3.77;;;1.43;;
19907;SDS011;10116;53.112;7.356;2023-04-25T13:56:42;4.33;;;1.30;;
19907;SDS011;10116;53.112;7.356;2023-04-25T13:59:08;3.23;;;1.00;;
19907;SDS011;10116;53.112;7.356;2023-04-25T14:01:33;1.33;;;1.03;;
19907;SDS011;10116;53.112;7.356;2023-04-25T14:04:00;6.20;;;1.03;;
19907;SDS011;10116;53.112;7.356;2023-04-25T14:06:26;4.00;;;1.27;;
19907;SDS011;10116;53.112;7.356;2023-04-25T14:08:52;1.93;;;1.00;;
19907;SDS011;10116;53.112;7.356;2023-04-25T14:11:18;5.60;;;1.03;;
19907;SDS011;10116;53.112;7.356;2023-04-25T14:13:46;2.30;;;1.30;;
19907;SDS011;10116;53.112;7.356;2023-04-25T14:16:14;2.87;;;1.20;;
19907;SDS011;10116;53.112;7.356;2023-04-25T14:18:46;3.90;;;1.40;;
19907;SDS011;10116;53.112;7.356;2023-04-25T14:21:15;2.57;;;1.23;;
19907;SDS011;10116;53.112;7.356;2023-04-25T14:23:48;1.33;;;1.00;;
19907;SDS011;10116;53.112;7.356;2023-04-25T14:26:29;1.30;;;1.20;;
19907;SDS011;10116;53.112;7.356;2023-04-25T14:28:55;3.83;;;1.17;;
19907;SDS011;10116;53.112;7.356;2023-04-25T14:31:21;2.93;;;1.03;;
19907;SDS011;10116;53.112;7.356;2023-04-25T14:33:47;2.47;;;1.00;;
19907;SDS011;10116;53.112;7.356;2023-04-25T14:36:12;2.47;;;1.10;;
19907;SDS011;10116;53.112;7.356;2023-04-25T14:38:39;1.00;;;0.80;;
19907;SDS011;10116;53.112;7.356;2023-04-25T14:41:04;2.87;;;1.10;;
19907;SDS011;10116;53.112;7.356;2023-04-25T14:43:30;5.57;;;1.17;;
19907;SDS011;10116;53.112;7.356;2023-04-25T14:45:56;1.93;;;1.03;;
19907;SDS011;10116;53.112;7.356;2023-04-25T14:48:22;2.70;;;0.90;;
19907;SDS011;10116;53.112;7.356;2023-04-25T14:50:48;2.13;;;1.00;;
19907;SDS011;10116;53.112;7.356;2023-04-25T14:53:14;1.37;;;0.93;;
19907;SDS011;10116;53.112;7.356;2023-04-25T14:55:40;1.10;;;1.00;;
19907;SDS011;10116;53.112;7.356;2023-04-25T14:58:17;0.93;;;0.70;;
19907;SDS011;10116;53.112;7.356;2023-04-25T15:00:42;3.73;;;1.00;;
19907;SDS011;10116;53.112;7.356;2023-04-25T15:03:09;1.40;;;1.00;;